sensor_id;sensor_type;location;lat;lon;timestamp;temperature;humidity
6865;DHT22;3471;49.678;8.388;2024-01-15T00:01:49;-0.60;99.90
6865;DHT22;3471;49.678;8.388;2024-01-15T00:04:15;-0.50;99.90
6865;DHT22;3471;49.678;8.388;2024-01-15T00:06:40;-0.50;99.90
6865;DHT22;3471;49.678;8.388;2024-01-15T00:09:06;-0.50;99.90
6865;DHT22;3471;49.678;8.388;2024-01-15T00:11:32;-0.50;99.90
6865;DHT22;3471;49.678;8.388;2024-01-15T00:13:58;-0.50;99.90
6865;DHT22;3471;49.678;8.388;2024-01-15T00:16:24;-0.50;99.90
6865;DHT22;3471;49.678;8.388;2024-01-15T00:18:49;-0.50;99.90
6865;DHT22;3471;49.678;8.388;2024-01-15T00:21:15;-0.40;99.90
6865;DHT22;3471;49.678;8.388;2024-01-15T00:23:44;-0.50;99.90
6865;DHT22;3471;49.678;8.388;2024-01-15T00:26:10;-0.40;99.90
6865;DHT22;3471;49.678;8.388;2024-01-15T00:28:36;-0.40;99.90
6865;DHT22;3471;49.678;8.388;2024-01-15T00:31:02;-0.40;99.90
6865;DHT22;3471;49.678;8.388;2024-01-15T00:33:28;-0.40;99.90
6865;DHT22;3471;49.678;8.388;2024-01-15T00:35:53;-0.40;99.90
6865;DHT22;3471;49.678;8.388;2024-01-15T00:38:19;-0.30;99.90
6865;DHT22;3471;49.678;8.388;2024-01-15T00:40:45;-0.30;99.90
6865;DHT22;3471;49.678;8.388;2024-01-15T00:43:11;-0.40;99.90
6865;DHT22;3471;49.678;8.388;2024-01-15T00:45:36;-0.40;99.90
6865;DHT22;3471;49.678;8.388;2024-01-15T00:48:03;-0.30;99.90
6865;DHT22;3471;49.678;8.388;2024-01-15T00:50:29;-0.30;99.90
6865;DHT22;3471;49.678;8.388;2024-01-15T00:52:54;-0.20;99.90
6865;DHT22;3471;49.678;8.388;2024-01-15T00:55:20;-0.20;99.90
6865;DHT22;3471;49.678;8.388;2024-01-15T00:57:45;-0.20;99.90
6865;DHT22;3471;49.678;8.388;2024-01-15T01:00:11;-0.30;99.90
6865;DHT22;3471;49.678;8.388;2024-01-15T01:02:37;-0.20;99.90
6865;DHT22;3471;49.678;8.388;2024-01-15T01:05:03;-0.30;99.90
6865;DHT22;3471;49.678;8.388;2024-01-15T01:07:29;-0.20;99.90
6865;DHT22;3471;49.678;8.388;2024-01-15T01:09:55;-0.20;99.90
6865;DHT22;3471;49.678;8.388;2024-01-15T01:12:20;-0.20;99.90
6865;DHT22;3471;49.678;8.388;2024-01-15T01:14:46;-0.20;99.90
6865;DHT22;3471;49.678;8.388;2024-01-15T01:17:12;-0.20;99.90
6865;DHT22;3471;49.678;8.388;2024-01-15T01:19:37;-0.10;99.90
6865;DHT22;3471;49.678;8.388;2024-01-15T01:22:03;-0.20;99.90
6865;DHT22;3471;49.678;8.388;2024-01-15T01:24:29;-0.20;99.90
6865;DHT22;3471;49.678;8.388;2024-01-15T01:26:54;-0.20;99.90
6865;DHT22;3471;49.678;8.388;2024-01-15T01:29:20;-0.30;99.90
6865;DHT22;3471;49.678;8.388;2024-01-15T01:31:46;-0.30;99.90
6865;DHT22;3471;49.678;8.388;2024-01-15T01:34:14;-0.30;99.90
6865;DHT22;3471;49.678;8.388;2024-01-15T01:36:40;-0.40;99.90
6865;DHT22;3471;49.678;8.388;2024-01-15T01:39:06;-0.40;99.90
6865;DHT22;3471;49.678;8.388;2024-01-15T01:41:31;-0.50;99.90
6865;DHT22;3471;49.678;8.388;2024-01-15T01:43:57;-0.50;99.90
6865;DHT22;3471;49.678;8.388;2024-01-15T01:46:24;-0.50;99.90
6865;DHT22;3471;49.678;8.388;2024-01-15T01:48:51;-0.50;99.90
6865;DHT22;3471;49.678;8.388;2024-01-15T01:51:17;-0.60;99.90
6865;DHT22;3471;49.678;8.388;2024-01-15T01:53:44;-0.60;99.90
6865;DHT22;3471;49.678;8.388;2024-01-15T01:56:11;-0.60;99.90
6865;DHT22;3471;49.678;8.388;2024-01-15T01:58:38;-0.50;99.90
6865;DHT22;3471;49.678;8.388;2024-01-15T02:01:03;-0.50;99.90
6865;DHT22;3471;49.678;8.388;2024-01-15T02:03:30;-0.50;99.90
6865;DHT22;3471;49.678;8.388;2024-01-15T02:05:56;-0.50;99.90
6865;DHT22;3471;49.678;8.388;2024-01-15T02:08:22;-0.50;99.90
6865;DHT22;3471;49.678;8.388;2024-01-15T02:10:48;-0.50;99.90
6865;DHT22;3471;49.678;8.388;2024-01-15T02:13:14;-0.40;99.90
6865;DHT22;3471;49.678;8.388;2024-01-15T02:15:40;-0.30;99.90
6865;DHT22;3471;49.678;8.388;2024-01-15T02:18:06;-0.30;99.90
6865;DHT22;3471;49.678;8.388;2024-01-15T02:20:35;-0.30;99.90
6865;DHT22;3471;49.678;8.388;2024-01-15T02:25:38;-0.20;99.90
6865;DHT22;3471;49.678;8.388;2024-01-15T02:28:06;-0.20;99.90
6865;DHT22;3471;49.678;8.388;2024-01-15T02:30:35;-0.10;99.90
6865;DHT22;3471;49.678;8.388;2024-01-15T02:33:02;-0.10;99.90
6865;DHT22;3471;49.678;8.388;2024-01-15T02:35:27;-0.20;99.90
6865;DHT22;3471;49.678;8.388;2024-01-15T02:37:53;-0.20;99.90
6865;DHT22;3471;49.678;8.388;2024-01-15T02:40:18;-0.20;99.90
6865;DHT22;3471;49.678;8.388;2024-01-15T02:42:44;-0.10;99.90
6865;DHT22;3471;49.678;8.388;2024-01-15T02:45:09;-0.20;99.90
6865;DHT22;3471;49.678;8.388;2024-01-15T02:47:35;-0.20;99.90
6865;DHT22;3471;49.678;8.388;2024-01-15T02:50:01;-0.10;99.90
6865;DHT22;3471;49.678;8.388;2024-01-15T02:52:26;-0.10;99.90
6865;DHT22;3471;49.678;8.388;2024-01-15T02:54:52;-0.10;99.90
6865;DHT22;3471;49.678;8.388;2024-01-15T02:57:17;-0.10;99.90
6865;DHT22;3471;49.678;8.388;2024-01-15T02:59:43;0.00;99.90
6865;DHT22;3471;49.678;8.388;2024-01-15T03:02:08;0.00;99.90
6865;DHT22;3471;49.678;8.388;2024-01-15T03:04:34;0.00;99.90
6865;DHT22;3471;49.678;8.388;2024-01-15T03:06:59;0.00;99.90
6865;DHT22;3471;49.678;8.388;2024-01-15T03:09:25;0.00;99.90
6865;DHT22;3471;49.678;8.388;2024-01-15T03:11:50;-0.10;99.90
6865;DHT22;3471;49.678;8.388;2024-01-15T03:14:16;-0.10;99.90
6865;DHT22;3471;49.678;8.388;2024-01-15T03:16:42;-0.20;99.90
6865;DHT22;3471;49.678;8.388;2024-01-15T03:19:07;-0.20;99.90
6865;DHT22;3471;49.678;8.388;2024-01-15T03:21:33;-0.20;99.90
6865;DHT22;3471;49.678;8.388;2024-01-15T03:23:58;-0.20;99.90
6865;DHT22;3471;49.678;8.388;2024-01-15T03:26:24;-0.20;99.90
6865;DHT22;3471;49.678;8.388;2024-01-15T03:28:49;-0.30;99.90
6865;DHT22;3471;49.678;8.388;2024-01-15T03:31:15;-0.30;99.90
6865;DHT22;3471;49.678;8.388;2024-01-15T03:33:40;-0.40;99.90
6865;DHT22;3471;49.678;8.388;2024-01-15T03:36:06;-0.30;99.90
6865;DHT22;3471;49.678;8.388;2024-01-15T03:38:32;-0.30;99.90
6865;DHT22;3471;49.678;8.388;2024-01-15T03:40:58;-0.30;99.90
6865;DHT22;3471;49.678;8.388;2024-01-15T03:43:23;-0.30;99.90
6865;DHT22;3471;49.678;8.388;2024-01-15T03:45:49;-0.30;99.90
6865;DHT22;3471;49.678;8.388;2024-01-15T03:48:14;-0.30;99.90
6865;DHT22;3471;49.678;8.388;2024-01-15T03:50:40;-0.20;99.90
6865;DHT22;3471;49.678;8.388;2024-01-15T03:53:05;-0.30;99.90
6865;DHT22;3471;49.678;8.388;2024-01-15T03:55:31;-0.30;99.90
6865;DHT22;3471;49.678;8.388;2024-01-15T03:57:57;-0.30;99.90
6865;DHT22;3471;49.678;8.388;2024-01-15T04:00:23;-0.30;99.90
6865;DHT22;3471;49.678;8.388;2024-01-15T04:02:48;-0.30;99.90
6865;DHT22;3471;49.678;8.388;2024-01-15T04:05:14;-0.30;99.90
6865;DHT22;3471;49.678;8.388;2024-01-15T04:07:39;-0.30;99.90
6865;DHT22;3471;49.678;8.388;2024-01-15T04:10:05;-0.20;99.90
6865;DHT22;3471;49.678;8.388;2024-01-15T04:12:31;-0.20;99.90
6865;DHT22;3471;49.678;8.388;2024-01-15T04:14:57;-0.20;99.90
6865;DHT22;3471;49.678;8.388;2024-01-15T04:17:22;-0.20;99.90
6865;DHT22;3471;49.678;8.388;2024-01-15T04:19:48;-0.30;99.90
6865;DHT22;3471;49.678;8.388;2024-01-15T04:22:14;-0.30;99.90
6865;DHT22;3471;49.678;8.388;2024-01-15T04:24:39;-0.20;99.90
6865;DHT22;3471;49.678;8.388;2024-01-15T04:27:05;-0.20;99.90
6865;DHT22;3471;49.678;8.388;2024-01-15T04:29:31;-0.20;99.90
6865;DHT22;3471;49.678;8.388;2024-01-15T04:31:57;-0.20;99.90
6865;DHT22;3471;49.678;8.388;2024-01-15T04:34:22;-0.20;99.90
6865;DHT22;3471;49.678;8.388;2024-01-15T04:36:48;-0.20;99.90
6865;DHT22;3471;49.678;8.388;2024-01-15T04:39:13;-0.20;99.90
6865;DHT22;3471;49.678;8.388;2024-01-15T04:41:39;-0.20;99.90
6865;DHT22;3471;49.678;8.388;2024-01-15T04:44:05;-0.20;99.90
6865;DHT22;3471;49.678;8.388;2024-01-15T04:46:30;-0.20;99.90
6865;DHT22;3471;49.678;8.388;2024-01-15T04:48:56;-0.20;99.90
6865;DHT22;3471;49.678;8.388;2024-01-15T04:51:21;-0.20;99.90
6865;DHT22;3471;49.678;8.388;2024-01-15T04:53:47;-0.10;99.90
6865;DHT22;3471;49.678;8.388;2024-01-15T04:56:12;-0.10;99.90
6865;DHT22;3471;49.678;8.388;2024-01-15T04:58:38;0.00;99.90
6865;DHT22;3471;49.678;8.388;2024-01-15T05:01:03;0.10;99.90
6865;DHT22;3471;49.678;8.388;2024-01-15T05:03:29;0.10;99.90
6865;DHT22;3471;49.678;8.388;2024-01-15T05:05:55;0.20;99.90
6865;DHT22;3471;49.678;8.388;2024-01-15T05:08:20;0.20;99.90
6865;DHT22;3471;49.678;8.388;2024-01-15T05:10:47;0.30;99.90
6865;DHT22;3471;49.678;8.388;2024-01-15T05:13:13;0.30;99.90
6865;DHT22;3471;49.678;8.388;2024-01-15T05:15:38;0.30;99.90
6865;DHT22;3471;49.678;8.388;2024-01-15T05:18:04;0.40;99.90
6865;DHT22;3471;49.678;8.388;2024-01-15T05:20:30;0.40;99.90
6865;DHT22;3471;49.678;8.388;2024-01-15T05:22:56;0.40;99.90
6865;DHT22;3471;49.678;8.388;2024-01-15T05:25:21;0.50;99.90
6865;DHT22;3471;49.678;8.388;2024-01-15T05:27:47;0.40;99.90
6865;DHT22;3471;49.678;8.388;2024-01-15T05:30:13;0.50;99.90
6865;DHT22;3471;49.678;8.388;2024-01-15T05:32:39;0.40;99.90
6865;DHT22;3471;49.678;8.388;2024-01-15T05:35:05;0.40;99.90
6865;DHT22;3471;49.678;8.388;2024-01-15T05:37:30;0.40;99.90
6865;DHT22;3471;49.678;8.388;2024-01-15T05:39:56;0.40;99.90
6865;DHT22;3471;49.678;8.388;2024-01-15T05:42:21;0.40;99.90
6865;DHT22;3471;49.678;8.388;2024-01-15T05:44:47;0.40;99.90
6865;DHT22;3471;49.678;8.388;2024-01-15T05:47:12;0.30;99.90
6865;DHT22;3471;49.678;8.388;2024-01-15T05:49:38;0.30;99.90
6865;DHT22;3471;49.678;8.388;2024-01-15T05:52:04;0.20;99.90
6865;DHT22;3471;49.678;8.388;2024-01-15T05:54:30;0.30;99.90
6865;DHT22;3471;49.678;8.388;2024-01-15T05:56:55;0.30;99.90
6865;DHT22;3471;49.678;8.388;2024-01-15T05:59:21;0.30;99.90
6865;DHT22;3471;49.678;8.388;2024-01-15T06:01:46;0.30;99.90
6865;DHT22;3471;49.678;8.388;2024-01-15T06:04:12;0.20;99.90
6865;DHT22;3471;49.678;8.388;2024-01-15T06:06:38;0.20;99.90
6865;DHT22;3471;49.678;8.388;2024-01-15T06:09:03;0.20;99.90
6865;DHT22;3471;49.678;8.388;2024-01-15T06:11:31;0.20;99.90
6865;DHT22;3471;49.678;8.388;2024-01-15T06:13:57;0.20;99.90
6865;DHT22;3471;49.678;8.388;2024-01-15T06:16:24;0.20;99.90
6865;DHT22;3471;49.678;8.388;2024-01-15T06:18:50;0.20;99.90
6865;DHT22;3471;49.678;8.388;2024-01-15T06:21:16;0.20;99.90
6865;DHT22;3471;49.678;8.388;2024-01-15T06:23:41;0.20;99.90
6865;DHT22;3471;49.678;8.388;2024-01-15T06:26:07;0.10;99.90
6865;DHT22;3471;49.678;8.388;2024-01-15T06:28:33;0.10;99.90
6865;DHT22;3471;49.678;8.388;2024-01-15T06:30:58;0.10;99.90
6865;DHT22;3471;49.678;8.388;2024-01-15T06:33:24;0.10;99.90
6865;DHT22;3471;49.678;8.388;2024-01-15T06:35:50;0.10;99.90
6865;DHT22;3471;49.678;8.388;2024-01-15T06:38:16;0.10;99.90
6865;DHT22;3471;49.678;8.388;2024-01-15T06:40:41;0.10;99.90
6865;DHT22;3471;49.678;8.388;2024-01-15T06:43:11;0.10;99.90
6865;DHT22;3471;49.678;8.388;2024-01-15T06:45:37;0.10;99.90
6865;DHT22;3471;49.678;8.388;2024-01-15T06:48:03;0.10;99.90
6865;DHT22;3471;49.678;8.388;2024-01-15T06:50:28;0.20;99.90
6865;DHT22;3471;49.678;8.388;2024-01-15T06:52:54;0.20;99.90
6865;DHT22;3471;49.678;8.388;2024-01-15T06:55:19;0.30;99.90
6865;DHT22;3471;49.678;8.388;2024-01-15T06:57:45;0.30;99.90
6865;DHT22;3471;49.678;8.388;2024-01-15T07:00:11;0.30;99.90
6865;DHT22;3471;49.678;8.388;2024-01-15T07:02:36;0.40;99.90
6865;DHT22;3471;49.678;8.388;2024-01-15T07:05:02;0.40;99.90
6865;DHT22;3471;49.678;8.388;2024-01-15T07:07:30;0.40;99.90
6865;DHT22;3471;49.678;8.388;2024-01-15T07:09:56;0.40;99.90
6865;DHT22;3471;49.678;8.388;2024-01-15T07:12:22;0.50;99.90
6865;DHT22;3471;49.678;8.388;2024-01-15T07:14:47;0.50;99.90
6865;DHT22;3471;49.678;8.388;2024-01-15T07:17:13;0.60;99.90
6865;DHT22;3471;49.678;8.388;2024-01-15T07:19:39;0.60;99.90
6865;DHT22;3471;49.678;8.388;2024-01-15T07:22:06;0.70;99.90
6865;DHT22;3471;49.678;8.388;2024-01-15T07:24:31;0.70;99.90
6865;DHT22;3471;49.678;8.388;2024-01-15T07:26:59;0.70;99.90
6865;DHT22;3471;49.678;8.388;2024-01-15T07:29:25;0.80;99.90
6865;DHT22;3471;49.678;8.388;2024-01-15T07:31:51;0.80;99.90
6865;DHT22;3471;49.678;8.388;2024-01-15T07:34:17;0.80;99.90
6865;DHT22;3471;49.678;8.388;2024-01-15T07:36:46;0.80;99.90
6865;DHT22;3471;49.678;8.388;2024-01-15T07:39:12;0.80;99.90
6865;DHT22;3471;49.678;8.388;2024-01-15T07:41:38;0.80;99.90
6865;DHT22;3471;49.678;8.388;2024-01-15T07:44:03;0.80;99.90
6865;DHT22;3471;49.678;8.388;2024-01-15T07:46:29;0.80;99.90
6865;DHT22;3471;49.678;8.388;2024-01-15T07:48:55;0.80;99.90
6865;DHT22;3471;49.678;8.388;2024-01-15T07:51:26;0.80;99.90
6865;DHT22;3471;49.678;8.388;2024-01-15T07:53:53;0.80;99.90
6865;DHT22;3471;49.678;8.388;2024-01-15T07:56:19;0.90;99.90
6865;DHT22;3471;49.678;8.388;2024-01-15T07:58:45;0.90;99.90
6865;DHT22;3471;49.678;8.388;2024-01-15T08:01:10;0.90;99.90
6865;DHT22;3471;49.678;8.388;2024-01-15T08:03:36;0.90;99.90
6865;DHT22;3471;49.678;8.388;2024-01-15T08:06:02;1.00;99.90
6865;DHT22;3471;49.678;8.388;2024-01-15T08:08:27;1.00;99.90
6865;DHT22;3471;49.678;8.388;2024-01-15T08:10:53;1.10;99.90
6865;DHT22;3471;49.678;8.388;2024-01-15T08:13:19;1.10;99.90
6865;DHT22;3471;49.678;8.388;2024-01-15T08:15:45;1.10;99.90
6865;DHT22;3471;49.678;8.388;2024-01-15T08:18:11;1.10;99.90
6865;DHT22;3471;49.678;8.388;2024-01-15T08:20:36;1.10;99.90
6865;DHT22;3471;49.678;8.388;2024-01-15T08:23:03;1.10;99.90
6865;DHT22;3471;49.678;8.388;2024-01-15T08:25:28;1.10;99.90
6865;DHT22;3471;49.678;8.388;2024-01-15T08:27:55;1.10;99.90
6865;DHT22;3471;49.678;8.388;2024-01-15T08:30:21;1.10;99.90
6865;DHT22;3471;49.678;8.388;2024-01-15T08:32:50;1.10;99.90
6865;DHT22;3471;49.678;8.388;2024-01-15T08:35:15;1.10;99.90
6865;DHT22;3471;49.678;8.388;2024-01-15T08:37:41;1.10;99.90
6865;DHT22;3471;49.678;8.388;2024-01-15T08:40:07;1.10;99.90
6865;DHT22;3471;49.678;8.388;2024-01-15T08:42:32;1.10;99.90
6865;DHT22;3471;49.678;8.388;2024-01-15T08:44:58;1.00;99.90
6865;DHT22;3471;49.678;8.388;2024-01-15T08:47:23;1.10;99.90
6865;DHT22;3471;49.678;8.388;2024-01-15T08:49:51;1.10;99.90
6865;DHT22;3471;49.678;8.388;2024-01-15T08:52:16;1.20;99.90
6865;DHT22;3471;49.678;8.388;2024-01-15T08:54:42;1.20;99.90
6865;DHT22;3471;49.678;8.388;2024-01-15T08:57:07;1.30;99.90
6865;DHT22;3471;49.678;8.388;2024-01-15T08:59:33;1.30;99.90
6865;DHT22;3471;49.678;8.388;2024-01-15T09:01:59;1.30;99.90
6865;DHT22;3471;49.678;8.388;2024-01-15T09:04:25;1.30;99.90
6865;DHT22;3471;49.678;8.388;2024-01-15T09:06:50;1.30;99.90
6865;DHT22;3471;49.678;8.388;2024-01-15T09:09:16;1.20;99.90
6865;DHT22;3471;49.678;8.388;2024-01-15T09:11:42;1.30;99.90
6865;DHT22;3471;49.678;8.388;2024-01-15T09:14:08;1.30;99.90
6865;DHT22;3471;49.678;8.388;2024-01-15T09:16:34;1.30;99.90
6865;DHT22;3471;49.678;8.388;2024-01-15T09:19:00;1.30;99.90
6865;DHT22;3471;49.678;8.388;2024-01-15T09:21:26;1.30;99.90
6865;DHT22;3471;49.678;8.388;2024-01-15T09:23:51;1.20;99.90
6865;DHT22;3471;49.678;8.388;2024-01-15T09:26:17;1.20;99.90
6865;DHT22;3471;49.678;8.388;2024-01-15T09:28:43;1.30;99.90
6865;DHT22;3471;49.678;8.388;2024-01-15T09:31:09;1.30;99.90
6865;DHT22;3471;49.678;8.388;2024-01-15T09:33:34;1.30;99.90
6865;DHT22;3471;49.678;8.388;2024-01-15T09:36:03;1.20;99.90
6865;DHT22;3471;49.678;8.388;2024-01-15T09:38:32;1.30;99.90
6865;DHT22;3471;49.678;8.388;2024-01-15T09:40:58;1.20;99.90
6865;DHT22;3471;49.678;8.388;2024-01-15T09:43:24;1.30;99.90
6865;DHT22;3471;49.678;8.388;2024-01-15T09:45:49;1.30;99.90
6865;DHT22;3471;49.678;8.388;2024-01-15T09:48:16;1.30;99.90
6865;DHT22;3471;49.678;8.388;2024-01-15T09:50:42;1.30;99.90
6865;DHT22;3471;49.678;8.388;2024-01-15T09:53:09;1.30;99.90
6865;DHT22;3471;49.678;8.388;2024-01-15T09:55:36;1.30;99.90
6865;DHT22;3471;49.678;8.388;2024-01-15T09:58:04;1.40;99.90
6865;DHT22;3471;49.678;8.388;2024-01-15T10:00:29;1.40;99.90
6865;DHT22;3471;49.678;8.388;2024-01-15T10:02:58;1.50;99.90
6865;DHT22;3471;49.678;8.388;2024-01-15T10:05:26;1.60;99.90
6865;DHT22;3471;49.678;8.388;2024-01-15T10:07:53;1.70;99.90
6865;DHT22;3471;49.678;8.388;2024-01-15T10:10:20;1.70;99.90
6865;DHT22;3471;49.678;8.388;2024-01-15T10:12:47;1.80;99.90
6865;DHT22;3471;49.678;8.388;2024-01-15T10:15:13;1.80;99.90
6865;DHT22;3471;49.678;8.388;2024-01-15T10:17:40;1.80;99.90
6865;DHT22;3471;49.678;8.388;2024-01-15T10:20:15;1.80;99.90
6865;DHT22;3471;49.678;8.388;2024-01-15T10:22:45;1.70;99.90
6865;DHT22;3471;49.678;8.388;2024-01-15T10:25:15;1.70;99.90
6865;DHT22;3471;49.678;8.388;2024-01-15T10:27:41;1.60;99.90
6865;DHT22;3471;49.678;8.388;2024-01-15T10:30:10;1.50;99.90
6865;DHT22;3471;49.678;8.388;2024-01-15T10:32:37;1.40;99.90
6865;DHT22;3471;49.678;8.388;2024-01-15T10:35:04;1.40;99.90
6865;DHT22;3471;49.678;8.388;2024-01-15T10:37:33;1.40;99.90
6865;DHT22;3471;49.678;8.388;2024-01-15T10:40:02;1.40;99.90
6865;DHT22;3471;49.678;8.388;2024-01-15T10:42:30;1.50;99.90
6865;DHT22;3471;49.678;8.388;2024-01-15T10:44:56;1.50;99.90
6865;DHT22;3471;49.678;8.388;2024-01-15T10:47:22;1.50;99.90
6865;DHT22;3471;49.678;8.388;2024-01-15T10:49:48;1.60;99.90
6865;DHT22;3471;49.678;8.388;2024-01-15T10:52:15;1.60;99.90
6865;DHT22;3471;49.678;8.388;2024-01-15T10:54:41;1.60;99.90
6865;DHT22;3471;49.678;8.388;2024-01-15T10:57:08;1.60;99.90
6865;DHT22;3471;49.678;8.388;2024-01-15T10:59:34;1.70;99.90
6865;DHT22;3471;49.678;8.388;2024-01-15T11:02:00;1.70;99.90
6865;DHT22;3471;49.678;8.388;2024-01-15T11:04:26;1.70;99.90
6865;DHT22;3471;49.678;8.388;2024-01-15T11:06:54;1.70;99.90
6865;DHT22;3471;49.678;8.388;2024-01-15T11:09:21;1.70;99.90
6865;DHT22;3471;49.678;8.388;2024-01-15T11:11:47;1.80;99.90
6865;DHT22;3471;49.678;8.388;2024-01-15T11:14:48;1.80;99.90
6865;DHT22;3471;49.678;8.388;2024-01-15T11:17:15;1.80;99.90
6865;DHT22;3471;49.678;8.388;2024-01-15T11:19:45;1.80;99.90
6865;DHT22;3471;49.678;8.388;2024-01-15T11:25:05;1.80;99.90
6865;DHT22;3471;49.678;8.388;2024-01-15T11:27:45;1.80;99.90
6865;DHT22;3471;49.678;8.388;2024-01-15T11:30:18;1.90;99.90
6865;DHT22;3471;49.678;8.388;2024-01-15T11:32:45;1.90;99.90
6865;DHT22;3471;49.678;8.388;2024-01-15T11:35:12;2.00;99.90
6865;DHT22;3471;49.678;8.388;2024-01-15T11:40:19;1.90;99.90
6865;DHT22;3471;49.678;8.388;2024-01-15T11:42:45;1.90;99.90
6865;DHT22;3471;49.678;8.388;2024-01-15T11:45:11;1.80;99.90
6865;DHT22;3471;49.678;8.388;2024-01-15T11:50:18;1.90;99.90
6865;DHT22;3471;49.678;8.388;2024-01-15T11:52:49;1.90;99.90
6865;DHT22;3471;49.678;8.388;2024-01-15T11:55:35;2.00;99.90
6865;DHT22;3471;49.678;8.388;2024-01-15T11:58:08;2.10;99.90
6865;DHT22;3471;49.678;8.388;2024-01-15T12:00:42;2.20;99.90
6865;DHT22;3471;49.678;8.388;2024-01-15T12:03:09;2.20;99.90
6865;DHT22;3471;49.678;8.388;2024-01-15T12:05:37;2.20;99.90
6865;DHT22;3471;49.678;8.388;2024-01-15T12:08:03;2.20;99.90
6865;DHT22;3471;49.678;8.388;2024-01-15T12:10:35;2.30;99.90
6865;DHT22;3471;49.678;8.388;2024-01-15T12:16:23;2.30;99.90
6865;DHT22;3471;49.678;8.388;2024-01-15T12:18:50;2.40;99.90
6865;DHT22;3471;49.678;8.388;2024-01-15T12:21:16;2.40;99.90
6865;DHT22;3471;49.678;8.388;2024-01-15T12:23:41;2.50;99.90
6865;DHT22;3471;49.678;8.388;2024-01-15T12:26:07;2.50;99.90
6865;DHT22;3471;49.678;8.388;2024-01-15T12:28:33;2.60;99.90
6865;DHT22;3471;49.678;8.388;2024-01-15T12:30:58;2.60;99.90
6865;DHT22;3471;49.678;8.388;2024-01-15T12:33:25;2.70;99.90
6865;DHT22;3471;49.678;8.388;2024-01-15T12:35:54;2.90;99.90
6865;DHT22;3471;49.678;8.388;2024-01-15T12:38:19;3.20;99.90
6865;DHT22;3471;49.678;8.388;2024-01-15T12:40:46;3.60;99.90
6865;DHT22;3471;49.678;8.388;2024-01-15T12:43:14;4.10;99.90
6865;DHT22;3471;49.678;8.388;2024-01-15T12:45:40;4.40;99.90
6865;DHT22;3471;49.678;8.388;2024-01-15T12:48:06;4.80;99.90
6865;DHT22;3471;49.678;8.388;2024-01-15T12:50:33;5.40;99.90
6865;DHT22;3471;49.678;8.388;2024-01-15T12:52:59;5.90;99.90
6865;DHT22;3471;49.678;8.388;2024-01-15T12:55:27;5.90;99.90
6865;DHT22;3471;49.678;8.388;2024-01-15T12:57:55;5.60;99.90
6865;DHT22;3471;49.678;8.388;2024-01-15T13:00:21;5.20;99.90
6865;DHT22;3471;49.678;8.388;2024-01-15T13:02:46;4.70;99.90
6865;DHT22;3471;49.678;8.388;2024-01-15T13:05:12;4.50;99.90
6865;DHT22;3471;49.678;8.388;2024-01-15T13:07:38;4.30;99.90
6865;DHT22;3471;49.678;8.388;2024-01-15T13:10:05;4.00;99.90
6865;DHT22;3471;49.678;8.388;2024-01-15T13:12:31;3.90;99.90
6865;DHT22;3471;49.678;8.388;2024-01-15T13:14:58;3.80;99.90
6865;DHT22;3471;49.678;8.388;2024-01-15T13:17:24;3.80;99.90
6865;DHT22;3471;49.678;8.388;2024-01-15T13:19:49;3.70;99.90
6865;DHT22;3471;49.678;8.388;2024-01-15T13:22:15;3.60;99.90
6865;DHT22;3471;49.678;8.388;2024-01-15T13:24:41;3.60;99.90
6865;DHT22;3471;49.678;8.388;2024-01-15T13:27:06;3.50;99.90
6865;DHT22;3471;49.678;8.388;2024-01-15T13:29:32;3.60;99.90
6865;DHT22;3471;49.678;8.388;2024-01-15T13:31:59;3.50;99.90
6865;DHT22;3471;49.678;8.388;2024-01-15T13:34:24;3.50;99.90
6865;DHT22;3471;49.678;8.388;2024-01-15T13:36:50;3.60;99.90
6865;DHT22;3471;49.678;8.388;2024-01-15T13:39:15;3.60;99.90
6865;DHT22;3471;49.678;8.388;2024-01-15T13:41:46;3.60;99.90
6865;DHT22;3471;49.678;8.388;2024-01-15T13:44:12;3.60;99.90
6865;DHT22;3471;49.678;8.388;2024-01-15T13:46:37;3.70;99.90
6865;DHT22;3471;49.678;8.388;2024-01-15T13:49:03;3.80;99.90
6865;DHT22;3471;49.678;8.388;2024-01-15T13:51:31;3.80;99.90
6865;DHT22;3471;49.678;8.388;2024-01-15T13:53:57;3.90;99.90
6865;DHT22;3471;49.678;8.388;2024-01-15T13:56:23;3.90;99.90
6865;DHT22;3471;49.678;8.388;2024-01-15T13:58:49;3.90;99.90
6865;DHT22;3471;49.678;8.388;2024-01-15T14:01:15;4.00;99.90
6865;DHT22;3471;49.678;8.388;2024-01-15T14:03:41;4.00;99.90
6865;DHT22;3471;49.678;8.388;2024-01-15T14:06:06;4.00;99.90
6865;DHT22;3471;49.678;8.388;2024-01-15T14:08:35;4.10;99.90
6865;DHT22;3471;49.678;8.388;2024-01-15T14:11:02;4.20;99.90
6865;DHT22;3471;49.678;8.388;2024-01-15T14:13:28;4.20;99.90
6865;DHT22;3471;49.678;8.388;2024-01-15T14:15:53;4.10;99.90
6865;DHT22;3471;49.678;8.388;2024-01-15T14:18:19;4.10;99.90
6865;DHT22;3471;49.678;8.388;2024-01-15T14:20:45;4.00;99.90
6865;DHT22;3471;49.678;8.388;2024-01-15T14:23:10;4.00;99.90
6865;DHT22;3471;49.678;8.388;2024-01-15T14:25:36;4.00;99.90
6865;DHT22;3471;49.678;8.388;2024-01-15T14:28:01;4.00;99.90
6865;DHT22;3471;49.678;8.388;2024-01-15T14:30:27;3.90;99.90
6865;DHT22;3471;49.678;8.388;2024-01-15T14:32:53;3.90;99.90
6865;DHT22;3471;49.678;8.388;2024-01-15T14:35:18;3.90;99.90
6865;DHT22;3471;49.678;8.388;2024-01-15T14:37:44;3.90;99.90
6865;DHT22;3471;49.678;8.388;2024-01-15T14:40:11;4.00;99.90
6865;DHT22;3471;49.678;8.388;2024-01-15T14:42:37;4.00;99.90
6865;DHT22;3471;49.678;8.388;2024-01-15T14:45:04;4.00;99.90
6865;DHT22;3471;49.678;8.388;2024-01-15T14:47:33;4.00;99.90
6865;DHT22;3471;49.678;8.388;2024-01-15T14:50:00;4.00;99.90
6865;DHT22;3471;49.678;8.388;2024-01-15T14:52:26;4.00;99.90
6865;DHT22;3471;49.678;8.388;2024-01-15T14:54:51;4.00;99.90
6865;DHT22;3471;49.678;8.388;2024-01-15T14:57:17;3.90;99.90
6865;DHT22;3471;49.678;8.388;2024-01-15T14:59:43;3.90;99.90
6865;DHT22;3471;49.678;8.388;2024-01-15T15:02:09;4.10;99.90
6865;DHT22;3471;49.678;8.388;2024-01-15T15:04:34;4.50;99.90
6865;DHT22;3471;49.678;8.388;2024-01-15T15:07:00;5.00;99.90
6865;DHT22;3471;49.678;8.388;2024-01-15T15:09:25;5.50;99.90
6865;DHT22;3471;49.678;8.388;2024-01-15T15:11:51;6.00;99.90
6865;DHT22;3471;49.678;8.388;2024-01-15T15:14:18;6.50;99.90
6865;DHT22;3471;49.678;8.388;2024-01-15T15:16:43;6.70;99.90
6865;DHT22;3471;49.678;8.388;2024-01-15T15:19:09;6.80;99.90
6865;DHT22;3471;49.678;8.388;2024-01-15T15:21:34;6.90;99.90
6865;DHT22;3471;49.678;8.388;2024-01-15T15:24:00;6.90;99.90
6865;DHT22;3471;49.678;8.388;2024-01-15T15:26:26;6.70;99.90
6865;DHT22;3471;49.678;8.388;2024-01-15T15:28:51;6.40;99.90
6865;DHT22;3471;49.678;8.388;2024-01-15T15:31:17;6.00;99.90
6865;DHT22;3471;49.678;8.388;2024-01-15T15:33:43;5.60;99.90
6865;DHT22;3471;49.678;8.388;2024-01-15T15:36:10;5.20;99.90
6865;DHT22;3471;49.678;8.388;2024-01-15T15:38:35;4.90;99.90
6865;DHT22;3471;49.678;8.388;2024-01-15T15:41:01;4.60;99.90
6865;DHT22;3471;49.678;8.388;2024-01-15T15:43:27;4.30;99.90
6865;DHT22;3471;49.678;8.388;2024-01-15T15:45:53;4.10;99.90
6865;DHT22;3471;49.678;8.388;2024-01-15T15:48:19;3.90;99.90
6865;DHT22;3471;49.678;8.388;2024-01-15T15:50:44;3.60;99.90
6865;DHT22;3471;49.678;8.388;2024-01-15T15:53:11;3.50;99.90
6865;DHT22;3471;49.678;8.388;2024-01-15T15:55:36;3.30;99.90
6865;DHT22;3471;49.678;8.388;2024-01-15T15:58:03;3.20;99.90
6865;DHT22;3471;49.678;8.388;2024-01-15T16:00:29;3.00;99.90
6865;DHT22;3471;49.678;8.388;2024-01-15T16:02:55;2.90;99.90
6865;DHT22;3471;49.678;8.388;2024-01-15T16:05:21;2.80;99.90
6865;DHT22;3471;49.678;8.388;2024-01-15T16:07:47;2.70;99.90
6865;DHT22;3471;49.678;8.388;2024-01-15T16:10:13;2.70;99.90
6865;DHT22;3471;49.678;8.388;2024-01-15T16:12:40;2.60;99.90
6865;DHT22;3471;49.678;8.388;2024-01-15T16:15:26;2.50;99.90
6865;DHT22;3471;49.678;8.388;2024-01-15T16:17:53;2.50;99.90
6865;DHT22;3471;49.678;8.388;2024-01-15T16:20:19;2.40;99.90